sensor_id;sensor_type;location;lat;lon;timestamp;temperature;humidity
70269;DHT22;58514;48.398;-4.274;2023-03-03T00:01:58;7.00;81.70
70269;DHT22;58514;48.398;-4.274;2023-03-03T00:04:24;7.00;82.10
70269;DHT22;58514;48.398;-4.274;2023-03-03T00:06:49;7.00;82.70
70269;DHT22;58514;48.398;-4.274;2023-03-03T00:09:15;7.00;82.90
70269;DHT22;58514;48.398;-4.274;2023-03-03T00:11:40;7.00;82.70
70269;DHT22;58514;48.398;-4.274;2023-03-03T00:14:16;7.00;82.90
70269;DHT22;58514;48.398;-4.274;2023-03-03T00:16:42;7.10;83.10
70269;DHT22;58514;48.398;-4.274;2023-03-03T00:19:15;7.10;83.10
70269;DHT22;58514;48.398;-4.274;2023-03-03T00:21:43;7.10;83.20
70269;DHT22;58514;48.398;-4.274;2023-03-03T00:26:38;7.00;82.60
70269;DHT22;58514;48.398;-4.274;2023-03-03T00:31:49;7.00;82.80
70269;DHT22;58514;48.398;-4.274;2023-03-03T00:36:44;7.00;83.30
70269;DHT22;58514;48.398;-4.274;2023-03-03T00:39:32;7.10;83.30
70269;DHT22;58514;48.398;-4.274;2023-03-03T00:41:56;7.20;83.60
70269;DHT22;58514;48.398;-4.274;2023-03-03T00:49:44;7.20;83.90
70269;DHT22;58514;48.398;-4.274;2023-03-03T00:52:11;7.30;83.80
70269;DHT22;58514;48.398;-4.274;2023-03-03T00:54:38;7.30;83.80
70269;DHT22;58514;48.398;-4.274;2023-03-03T00:57:03;7.30;83.80
70269;DHT22;58514;48.398;-4.274;2023-03-03T00:59:29;7.30;83.80
70269;DHT22;58514;48.398;-4.274;2023-03-03T01:01:54;7.20;83.40
70269;DHT22;58514;48.398;-4.274;2023-03-03T01:04:20;7.20;83.40
70269;DHT22;58514;48.398;-4.274;2023-03-03T01:06:45;7.20;83.40
70269;DHT22;58514;48.398;-4.274;2023-03-03T01:09:12;7.10;83.30
70269;DHT22;58514;48.398;-4.274;2023-03-03T01:11:37;7.00;83.20
70269;DHT22;58514;48.398;-4.274;2023-03-03T01:14:03;7.00;83.40
70269;DHT22;58514;48.398;-4.274;2023-03-03T01:16:28;7.00;83.40
70269;DHT22;58514;48.398;-4.274;2023-03-03T01:18:54;6.90;83.50
70269;DHT22;58514;48.398;-4.274;2023-03-03T01:21:19;6.90;83.50
70269;DHT22;58514;48.398;-4.274;2023-03-03T01:23:45;6.90;83.90
70269;DHT22;58514;48.398;-4.274;2023-03-03T01:26:10;6.90;83.80
70269;DHT22;58514;48.398;-4.274;2023-03-03T01:28:36;6.90;84.10
70269;DHT22;58514;48.398;-4.274;2023-03-03T01:31:02;6.90;83.70
70269;DHT22;58514;48.398;-4.274;2023-03-03T01:33:28;6.90;83.70
70269;DHT22;58514;48.398;-4.274;2023-03-03T01:35:54;6.90;83.70
70269;DHT22;58514;48.398;-4.274;2023-03-03T01:38:19;6.90;84.00
70269;DHT22;58514;48.398;-4.274;2023-03-03T01:40:51;6.80;83.60
70269;DHT22;58514;48.398;-4.274;2023-03-03T01:43:16;6.80;83.70
70269;DHT22;58514;48.398;-4.274;2023-03-03T01:50:49;6.80;83.90
70269;DHT22;58514;48.398;-4.274;2023-03-03T01:53:21;6.80;83.80
70269;DHT22;58514;48.398;-4.274;2023-03-03T01:55:47;6.70;83.70
70269;DHT22;58514;48.398;-4.274;2023-03-03T01:58:18;6.70;83.60
70269;DHT22;58514;48.398;-4.274;2023-03-03T02:00:47;6.60;83.60
70269;DHT22;58514;48.398;-4.274;2023-03-03T02:03:14;6.50;83.20
70269;DHT22;58514;48.398;-4.274;2023-03-03T02:05:40;6.50;83.50
70269;DHT22;58514;48.398;-4.274;2023-03-03T02:08:06;6.40;83.50
70269;DHT22;58514;48.398;-4.274;2023-03-03T02:10:33;6.30;83.40
70269;DHT22;58514;48.398;-4.274;2023-03-03T02:12:59;6.30;83.60
70269;DHT22;58514;48.398;-4.274;2023-03-03T02:15:26;6.20;83.70
70269;DHT22;58514;48.398;-4.274;2023-03-03T02:17:53;6.20;83.80
70269;DHT22;58514;48.398;-4.274;2023-03-03T02:20:53;6.10;83.80
70269;DHT22;58514;48.398;-4.274;2023-03-03T02:25:43;6.00;84.00
70269;DHT22;58514;48.398;-4.274;2023-03-03T02:28:10;6.00;84.10
70269;DHT22;58514;48.398;-4.274;2023-03-03T02:30:37;6.00;84.30
70269;DHT22;58514;48.398;-4.274;2023-03-03T02:33:03;6.00;84.30
70269;DHT22;58514;48.398;-4.274;2023-03-03T02:35:33;6.00;84.50
70269;DHT22;58514;48.398;-4.274;2023-03-03T02:38:01;6.00;84.40
70269;DHT22;58514;48.398;-4.274;2023-03-03T02:40:29;6.00;84.70
70269;DHT22;58514;48.398;-4.274;2023-03-03T02:42:55;6.00;84.50
70269;DHT22;58514;48.398;-4.274;2023-03-03T02:45:22;6.00;84.60
70269;DHT22;58514;48.398;-4.274;2023-03-03T02:47:48;6.00;84.80
70269;DHT22;58514;48.398;-4.274;2023-03-03T02:50:14;6.10;85.30
70269;DHT22;58514;48.398;-4.274;2023-03-03T02:52:39;6.10;85.10
70269;DHT22;58514;48.398;-4.274;2023-03-03T02:55:05;6.10;85.20
70269;DHT22;58514;48.398;-4.274;2023-03-03T02:57:30;6.20;85.00
70269;DHT22;58514;48.398;-4.274;2023-03-03T02:59:56;6.30;85.30
70269;DHT22;58514;48.398;-4.274;2023-03-03T03:02:22;6.30;85.30
70269;DHT22;58514;48.398;-4.274;2023-03-03T03:04:47;6.40;85.70
70269;DHT22;58514;48.398;-4.274;2023-03-03T03:07:13;6.40;85.70
70269;DHT22;58514;48.398;-4.274;2023-03-03T03:09:38;6.40;85.70
70269;DHT22;58514;48.398;-4.274;2023-03-03T03:12:04;6.50;85.80
70269;DHT22;58514;48.398;-4.274;2023-03-03T03:14:29;6.50;85.40
70269;DHT22;58514;48.398;-4.274;2023-03-03T03:16:55;6.50;85.40
70269;DHT22;58514;48.398;-4.274;2023-03-03T03:19:20;6.50;85.30
70269;DHT22;58514;48.398;-4.274;2023-03-03T03:21:46;6.50;85.50
70269;DHT22;58514;48.398;-4.274;2023-03-03T03:24:11;6.50;85.60
70269;DHT22;58514;48.398;-4.274;2023-03-03T03:26:37;6.50;85.60
70269;DHT22;58514;48.398;-4.274;2023-03-03T03:29:03;6.50;85.50
70269;DHT22;58514;48.398;-4.274;2023-03-03T03:31:28;6.50;85.40
70269;DHT22;58514;48.398;-4.274;2023-03-03T03:33:54;6.50;85.60
70269;DHT22;58514;48.398;-4.274;2023-03-03T03:36:19;6.50;85.60
70269;DHT22;58514;48.398;-4.274;2023-03-03T03:38:45;6.40;85.40
70269;DHT22;58514;48.398;-4.274;2023-03-03T03:41:11;6.40;84.90
70269;DHT22;58514;48.398;-4.274;2023-03-03T03:43:37;6.30;84.80
70269;DHT22;58514;48.398;-4.274;2023-03-03T03:46:02;6.20;84.80
70269;DHT22;58514;48.398;-4.274;2023-03-03T03:48:28;6.20;84.80
70269;DHT22;58514;48.398;-4.274;2023-03-03T03:50:54;6.10;84.60
70269;DHT22;58514;48.398;-4.274;2023-03-03T03:53:19;6.10;84.80
70269;DHT22;58514;48.398;-4.274;2023-03-03T03:55:45;6.10;85.30
70269;DHT22;58514;48.398;-4.274;2023-03-03T03:58:12;6.00;85.10
70269;DHT22;58514;48.398;-4.274;2023-03-03T04:00:38;6.00;85.30
70269;DHT22;58514;48.398;-4.274;2023-03-03T04:03:04;6.00;85.60
70269;DHT22;58514;48.398;-4.274;2023-03-03T04:05:29;6.00;85.50
70269;DHT22;58514;48.398;-4.274;2023-03-03T04:07:55;6.00;85.50
70269;DHT22;58514;48.398;-4.274;2023-03-03T04:10:20;6.00;85.50
70269;DHT22;58514;48.398;-4.274;2023-03-03T04:12:46;5.90;85.40
70269;DHT22;58514;48.398;-4.274;2023-03-03T04:15:12;5.90;85.50
70269;DHT22;58514;48.398;-4.274;2023-03-03T04:17:38;5.90;85.50
70269;DHT22;58514;48.398;-4.274;2023-03-03T04:20:05;5.90;85.90
70269;DHT22;58514;48.398;-4.274;2023-03-03T04:22:31;5.90;85.90
70269;DHT22;58514;48.398;-4.274;2023-03-03T04:25:00;5.90;86.10
70269;DHT22;58514;48.398;-4.274;2023-03-03T04:27:30;5.90;86.10
70269;DHT22;58514;48.398;-4.274;2023-03-03T04:29:56;5.90;85.90
70269;DHT22;58514;48.398;-4.274;2023-03-03T04:32:21;5.90;85.90
70269;DHT22;58514;48.398;-4.274;2023-03-03T04:34:47;5.90;86.10
70269;DHT22;58514;48.398;-4.274;2023-03-03T04:37:12;5.80;86.00
70269;DHT22;58514;48.398;-4.274;2023-03-03T04:39:38;5.90;86.30
70269;DHT22;58514;48.398;-4.274;2023-03-03T04:42:04;5.80;85.90
70269;DHT22;58514;48.398;-4.274;2023-03-03T04:44:29;5.80;85.80
70269;DHT22;58514;48.398;-4.274;2023-03-03T04:46:55;5.80;86.00
70269;DHT22;58514;48.398;-4.274;2023-03-03T04:49:20;5.80;85.80
70269;DHT22;58514;48.398;-4.274;2023-03-03T04:51:46;5.80;85.80
70269;DHT22;58514;48.398;-4.274;2023-03-03T04:54:11;5.90;86.50
70269;DHT22;58514;48.398;-4.274;2023-03-03T04:56:37;5.90;86.20
70269;DHT22;58514;48.398;-4.274;2023-03-03T04:59:02;5.90;86.20
70269;DHT22;58514;48.398;-4.274;2023-03-03T05:01:28;5.90;86.50
70269;DHT22;58514;48.398;-4.274;2023-03-03T05:03:53;6.00;86.60
70269;DHT22;58514;48.398;-4.274;2023-03-03T05:06:19;6.00;86.80
70269;DHT22;58514;48.398;-4.274;2023-03-03T05:08:44;6.00;86.80
70269;DHT22;58514;48.398;-4.274;2023-03-03T05:11:10;6.10;87.20
70269;DHT22;58514;48.398;-4.274;2023-03-03T05:13:36;6.10;86.80
70269;DHT22;58514;48.398;-4.274;2023-03-03T05:16:02;6.10;86.50
70269;DHT22;58514;48.398;-4.274;2023-03-03T05:18:27;6.10;86.60
70269;DHT22;58514;48.398;-4.274;2023-03-03T05:20:53;6.10;86.80
70269;DHT22;58514;48.398;-4.274;2023-03-03T05:23:19;6.10;86.80
70269;DHT22;58514;48.398;-4.274;2023-03-03T05:25:48;6.10;86.60
70269;DHT22;58514;48.398;-4.274;2023-03-03T05:28:14;6.20;87.10
70269;DHT22;58514;48.398;-4.274;2023-03-03T05:30:39;6.20;86.80
70269;DHT22;58514;48.398;-4.274;2023-03-03T05:33:05;6.20;86.90
70269;DHT22;58514;48.398;-4.274;2023-03-03T05:35:31;6.20;87.10
70269;DHT22;58514;48.398;-4.274;2023-03-03T05:37:57;6.20;86.90
70269;DHT22;58514;48.398;-4.274;2023-03-03T05:40:23;6.10;86.80
70269;DHT22;58514;48.398;-4.274;2023-03-03T05:42:49;6.20;87.40
70269;DHT22;58514;48.398;-4.274;2023-03-03T05:45:14;6.10;86.70
70269;DHT22;58514;48.398;-4.274;2023-03-03T05:47:40;6.10;86.90
70269;DHT22;58514;48.398;-4.274;2023-03-03T05:50:06;6.10;87.20
70269;DHT22;58514;48.398;-4.274;2023-03-03T05:52:31;6.10;87.40
70269;DHT22;58514;48.398;-4.274;2023-03-03T05:54:57;6.10;87.40
70269;DHT22;58514;48.398;-4.274;2023-03-03T05:57:22;6.10;87.80
70269;DHT22;58514;48.398;-4.274;2023-03-03T05:59:48;6.10;87.40
70269;DHT22;58514;48.398;-4.274;2023-03-03T06:02:13;6.10;87.10
70269;DHT22;58514;48.398;-4.274;2023-03-03T06:04:39;6.00;87.50
70269;DHT22;58514;48.398;-4.274;2023-03-03T06:07:05;6.00;87.00
70269;DHT22;58514;48.398;-4.274;2023-03-03T06:09:31;6.00;87.30
70269;DHT22;58514;48.398;-4.274;2023-03-03T06:11:56;6.00;87.50
70269;DHT22;58514;48.398;-4.274;2023-03-03T06:14:22;5.90;87.80
70269;DHT22;58514;48.398;-4.274;2023-03-03T06:16:47;5.90;87.90
70269;DHT22;58514;48.398;-4.274;2023-03-03T06:19:13;5.90;87.50
70269;DHT22;58514;48.398;-4.274;2023-03-03T06:21:39;5.90;87.60
70269;DHT22;58514;48.398;-4.274;2023-03-03T06:24:04;5.90;87.50
70269;DHT22;58514;48.398;-4.274;2023-03-03T06:26:30;5.80;87.50
70269;DHT22;58514;48.398;-4.274;2023-03-03T06:28:56;5.80;87.30
70269;DHT22;58514;48.398;-4.274;2023-03-03T06:31:21;5.80;87.50
70269;DHT22;58514;48.398;-4.274;2023-03-03T06:33:47;5.80;87.30
70269;DHT22;58514;48.398;-4.274;2023-03-03T06:36:12;5.70;87.60
70269;DHT22;58514;48.398;-4.274;2023-03-03T06:38:38;5.80;87.70
70269;DHT22;58514;48.398;-4.274;2023-03-03T06:41:04;5.80;88.20
70269;DHT22;58514;48.398;-4.274;2023-03-03T06:43:34;5.80;87.90
70269;DHT22;58514;48.398;-4.274;2023-03-03T06:46:00;5.80;87.90
70269;DHT22;58514;48.398;-4.274;2023-03-03T06:48:26;5.80;88.10
70269;DHT22;58514;48.398;-4.274;2023-03-03T06:50:51;5.80;89.00
70269;DHT22;58514;48.398;-4.274;2023-03-03T06:53:17;5.80;88.20
70269;DHT22;58514;48.398;-4.274;2023-03-03T06:55:43;5.80;87.90
70269;DHT22;58514;48.398;-4.274;2023-03-03T06:58:19;5.70;87.70
70269;DHT22;58514;48.398;-4.274;2023-03-03T07:00:48;5.80;87.90
70269;DHT22;58514;48.398;-4.274;2023-03-03T07:03:17;5.70;87.80
70269;DHT22;58514;48.398;-4.274;2023-03-03T07:05:43;5.70;88.10
70269;DHT22;58514;48.398;-4.274;2023-03-03T07:08:13;5.80;88.60
70269;DHT22;58514;48.398;-4.274;2023-03-03T07:10:39;5.80;88.50
70269;DHT22;58514;48.398;-4.274;2023-03-03T07:13:14;5.90;88.50
70269;DHT22;58514;48.398;-4.274;2023-03-03T07:15:40;5.90;88.30
70269;DHT22;58514;48.398;-4.274;2023-03-03T07:18:15;6.00;88.60
70269;DHT22;58514;48.398;-4.274;2023-03-03T07:20:45;6.00;88.80
70269;DHT22;58514;48.398;-4.274;2023-03-03T07:23:20;6.10;89.00
70269;DHT22;58514;48.398;-4.274;2023-03-03T07:25:47;6.10;89.10
70269;DHT22;58514;48.398;-4.274;2023-03-03T07:28:21;6.20;89.40
70269;DHT22;58514;48.398;-4.274;2023-03-03T07:30:47;6.30;89.50
70269;DHT22;58514;48.398;-4.274;2023-03-03T07:33:34;6.30;89.10
70269;DHT22;58514;48.398;-4.274;2023-03-03T07:36:00;6.40;89.40
70269;DHT22;58514;48.398;-4.274;2023-03-03T07:38:41;6.40;89.50
70269;DHT22;58514;48.398;-4.274;2023-03-03T07:41:27;6.50;89.60
70269;DHT22;58514;48.398;-4.274;2023-03-03T07:44:12;6.50;89.20
70269;DHT22;58514;48.398;-4.274;2023-03-03T07:46:42;6.50;89.30
70269;DHT22;58514;48.398;-4.274;2023-03-03T07:49:32;6.50;89.30
70269;DHT22;58514;48.398;-4.274;2023-03-03T07:51:55;6.60;89.40
70269;DHT22;58514;48.398;-4.274;2023-03-03T07:56:49;6.70;89.60
70269;DHT22;58514;48.398;-4.274;2023-03-03T07:59:17;6.70;89.70
70269;DHT22;58514;48.398;-4.274;2023-03-03T08:01:45;6.70;89.60
70269;DHT22;58514;48.398;-4.274;2023-03-03T08:04:16;6.80;89.60
70269;DHT22;58514;48.398;-4.274;2023-03-03T08:06:44;6.80;89.60
70269;DHT22;58514;48.398;-4.274;2023-03-03T08:11:38;6.80;89.70
70269;DHT22;58514;48.398;-4.274;2023-03-03T08:14:10;6.90;89.90
70269;DHT22;58514;48.398;-4.274;2023-03-03T08:16:39;6.90;89.80
70269;DHT22;58514;48.398;-4.274;2023-03-03T08:19:05;6.90;89.70
70269;DHT22;58514;48.398;-4.274;2023-03-03T08:21:31;7.00;89.80
70269;DHT22;58514;48.398;-4.274;2023-03-03T08:23:58;7.00;89.60
70269;DHT22;58514;48.398;-4.274;2023-03-03T08:26:24;7.00;89.60
70269;DHT22;58514;48.398;-4.274;2023-03-03T08:28:50;7.00;89.70
70269;DHT22;58514;48.398;-4.274;2023-03-03T08:31:15;7.10;90.00
70269;DHT22;58514;48.398;-4.274;2023-03-03T08:33:44;7.10;90.00
70269;DHT22;58514;48.398;-4.274;2023-03-03T08:36:10;7.20;90.00
70269;DHT22;58514;48.398;-4.274;2023-03-03T08:38:36;7.20;89.80
70269;DHT22;58514;48.398;-4.274;2023-03-03T08:41:02;7.20;90.00
70269;DHT22;58514;48.398;-4.274;2023-03-03T08:43:28;7.20;89.80
70269;DHT22;58514;48.398;-4.274;2023-03-03T08:45:56;7.20;89.80
70269;DHT22;58514;48.398;-4.274;2023-03-03T08:48:22;7.30;89.90
70269;DHT22;58514;48.398;-4.274;2023-03-03T08:50:48;7.30;90.00
70269;DHT22;58514;48.398;-4.274;2023-03-03T08:53:13;7.40;90.00
70269;DHT22;58514;48.398;-4.274;2023-03-03T08:55:39;7.30;89.90
70269;DHT22;58514;48.398;-4.274;2023-03-03T08:58:05;7.40;89.80
70269;DHT22;58514;48.398;-4.274;2023-03-03T09:00:30;7.40;89.90
70269;DHT22;58514;48.398;-4.274;2023-03-03T09:02:56;7.40;90.00
70269;DHT22;58514;48.398;-4.274;2023-03-03T09:05:22;7.40;89.80
70269;DHT22;58514;48.398;-4.274;2023-03-03T09:07:49;7.40;89.60
70269;DHT22;58514;48.398;-4.274;2023-03-03T09:10:25;7.40;89.70
70269;DHT22;58514;48.398;-4.274;2023-03-03T09:13:03;7.40;89.70
70269;DHT22;58514;48.398;-4.274;2023-03-03T09:15:32;7.40;89.60
70269;DHT22;58514;48.398;-4.274;2023-03-03T09:17:58;7.50;89.80
70269;DHT22;58514;48.398;-4.274;2023-03-03T09:20:30;7.50;89.80
70269;DHT22;58514;48.398;-4.274;2023-03-03T09:22:57;7.50;89.30
70269;DHT22;58514;48.398;-4.274;2023-03-03T09:25:30;7.50;89.10
70269;DHT22;58514;48.398;-4.274;2023-03-03T09:27:56;7.50;89.40
70269;DHT22;58514;48.398;-4.274;2023-03-03T09:32:50;7.50;89.60
70269;DHT22;58514;48.398;-4.274;2023-03-03T09:35:35;7.60;89.90
70269;DHT22;58514;48.398;-4.274;2023-03-03T09:38:01;7.60;89.70
70269;DHT22;58514;48.398;-4.274;2023-03-03T09:43:03;7.60;89.60
70269;DHT22;58514;48.398;-4.274;2023-03-03T09:55:50;7.80;89.70
70269;DHT22;58514;48.398;-4.274;2023-03-03T10:06:03;8.00;89.70
70269;DHT22;58514;48.398;-4.274;2023-03-03T10:17:07;8.20;89.00
70269;DHT22;58514;48.398;-4.274;2023-03-03T10:42:07;8.30;88.60
70269;DHT22;58514;48.398;-4.274;2023-03-03T10:44:50;8.30;88.30
70269;DHT22;58514;48.398;-4.274;2023-03-03T10:47:24;8.30;88.80
70269;DHT22;58514;48.398;-4.274;2023-03-03T11:07:55;8.80;89.90
70269;DHT22;58514;48.398;-4.274;2023-03-03T11:18:05;9.10;87.00
70269;DHT22;58514;48.398;-4.274;2023-03-03T11:20:44;9.00;87.00
70269;DHT22;58514;48.398;-4.274;2023-03-03T11:25:39;9.00;88.00
70269;DHT22;58514;48.398;-4.274;2023-03-03T11:41:22;8.90;87.00
70269;DHT22;58514;48.398;-4.274;2023-03-03T11:43:51;8.90;86.50
70269;DHT22;58514;48.398;-4.274;2023-03-03T11:46:19;8.90;85.90
70269;DHT22;58514;48.398;-4.274;2023-03-03T11:48:52;8.90;86.80
70269;DHT22;58514;48.398;-4.274;2023-03-03T11:54:08;8.90;86.80
70269;DHT22;58514;48.398;-4.274;2023-03-03T11:56:42;8.90;86.80
70269;DHT22;58514;48.398;-4.274;2023-03-03T11:59:30;9.00;86.00
70269;DHT22;58514;48.398;-4.274;2023-03-03T12:04:40;9.00;86.50
70269;DHT22;58514;48.398;-4.274;2023-03-03T12:12:12;8.90;85.90
70269;DHT22;58514;48.398;-4.274;2023-03-03T12:14:49;9.00;86.50
70269;DHT22;58514;48.398;-4.274;2023-03-03T12:19:49;9.10;86.80
70269;DHT22;58514;48.398;-4.274;2023-03-03T12:30:15;9.00;84.70
70269;DHT22;58514;48.398;-4.274;2023-03-03T12:37:47;8.90;84.70
70269;DHT22;58514;48.398;-4.274;2023-03-03T12:40:20;9.00;85.50
70269;DHT22;58514;48.398;-4.274;2023-03-03T12:43:36;9.00;85.90
70269;DHT22;58514;48.398;-4.274;2023-03-03T12:48:39;9.10;85.80
70269;DHT22;58514;48.398;-4.274;2023-03-03T12:51:20;9.20;86.40
70269;DHT22;58514;48.398;-4.274;2023-03-03T12:56:33;9.40;85.50
70269;DHT22;58514;48.398;-4.274;2023-03-03T12:59:03;9.40;84.60
70269;DHT22;58514;48.398;-4.274;2023-03-03T13:04:07;9.50;83.90
70269;DHT22;58514;48.398;-4.274;2023-03-03T13:06:38;9.50;84.40
70269;DHT22;58514;48.398;-4.274;2023-03-03T13:11:42;9.50;84.00
70269;DHT22;58514;48.398;-4.274;2023-03-03T13:14:20;9.50;83.40
70269;DHT22;58514;48.398;-4.274;2023-03-03T13:17:33;9.50;83.40
70269;DHT22;58514;48.398;-4.274;2023-03-03T13:19:37;9.50;83.30
70269;DHT22;58514;48.398;-4.274;2023-03-03T13:22:10;9.60;83.50
70269;DHT22;58514;48.398;-4.274;2023-03-03T13:27:18;10.00;86.40
70269;DHT22;58514;48.398;-4.274;2023-03-03T13:32:20;10.60;85.80
70269;DHT22;58514;48.398;-4.274;2023-03-03T13:34:51;10.60;82.00
70269;DHT22;58514;48.398;-4.274;2023-03-03T13:37:21;10.60;83.30
70269;DHT22;58514;48.398;-4.274;2023-03-03T13:39:56;10.60;83.10
70269;DHT22;58514;48.398;-4.274;2023-03-03T13:44:48;11.00;85.50
70269;DHT22;58514;48.398;-4.274;2023-03-03T13:52:30;11.20;82.70
70269;DHT22;58514;48.398;-4.274;2023-03-03T13:55:00;11.20;82.30
70269;DHT22;58514;48.398;-4.274;2023-03-03T13:57:37;11.10;81.80
70269;DHT22;58514;48.398;-4.274;2023-03-03T14:15:26;11.60;80.30
70269;DHT22;58514;48.398;-4.274;2023-03-03T14:18:03;11.50;81.40
70269;DHT22;58514;48.398;-4.274;2023-03-03T14:20:31;11.60;81.40
70269;DHT22;58514;48.398;-4.274;2023-03-03T14:23:03;11.70;82.20
70269;DHT22;58514;48.398;-4.274;2023-03-03T14:25:49;11.80;80.50
70269;DHT22;58514;48.398;-4.274;2023-03-03T14:28:14;11.70;78.70
70269;DHT22;58514;48.398;-4.274;2023-03-03T14:30:42;11.60;79.30
70269;DHT22;58514;48.398;-4.274;2023-03-03T14:38:08;11.40;79.00
70269;DHT22;58514;48.398;-4.274;2023-03-03T14:40:37;11.30;79.80
70269;DHT22;58514;48.398;-4.274;2023-03-03T14:43:25;11.30;78.80
70269;DHT22;58514;48.398;-4.274;2023-03-03T14:45:50;11.20;78.30
70269;DHT22;58514;48.398;-4.274;2023-03-03T14:48:16;11.10;77.90
70269;DHT22;58514;48.398;-4.274;2023-03-03T14:51:28;11.10;79.30
70269;DHT22;58514;48.398;-4.274;2023-03-03T14:53:37;11.20;80.30
70269;DHT22;58514;48.398;-4.274;2023-03-03T14:58:48;11.10;77.90
70269;DHT22;58514;48.398;-4.274;2023-03-03T15:03:44;10.80;77.30
70269;DHT22;58514;48.398;-4.274;2023-03-03T15:06:10;10.80;78.70
70269;DHT22;58514;48.398;-4.274;2023-03-03T15:08:38;10.90;78.10
70269;DHT22;58514;48.398;-4.274;2023-03-03T15:11:18;10.90;77.90
70269;DHT22;58514;48.398;-4.274;2023-03-03T15:13:44;10.90;78.60
70269;DHT22;58514;48.398;-4.274;2023-03-03T15:16:21;10.90;79.20
70269;DHT22;58514;48.398;-4.274;2023-03-03T15:19:09;11.10;80.00
70269;DHT22;58514;48.398;-4.274;2023-03-03T15:21:44;11.30;81.20
70269;DHT22;58514;48.398;-4.274;2023-03-03T15:24:30;11.60;81.30
70269;DHT22;58514;48.398;-4.274;2023-03-03T15:27:05;11.80;80.20
70269;DHT22;58514;48.398;-4.274;2023-03-03T15:29:37;11.80;77.30
70269;DHT22;58514;48.398;-4.274;2023-03-03T15:32:07;11.70;77.90
70269;DHT22;58514;48.398;-4.274;2023-03-03T15:37:02;11.50;76.90
70269;DHT22;58514;48.398;-4.274;2023-03-03T15:44:49;11.30;76.40
70269;DHT22;58514;48.398;-4.274;2023-03-03T15:54:58;11.20;77.70
70269;DHT22;58514;48.398;-4.274;2023-03-03T15:59:55;11.20;77.20
70269;DHT22;58514;48.398;-4.274;2023-03-03T16:02:31;11.20;76.70
70269;DHT22;58514;48.398;-4.274;2023-03-03T16:05:02;11.10;75.80
70269;DHT22;58514;48.398;-4.274;2023-03-03T16:12:55;10.90;75.90
70269;DHT22;58514;48.398;-4.274;2023-03-03T16:28:00;10.70;74.90
70269;DHT22;58514;48.398;-4.274;2023-03-03T16:30:33;10.60;75.40
70269;DHT22;58514;48.398;-4.274;2023-03-03T16:35:51;10.40;74.40
70269;DHT22;58514;48.398;-4.274;2023-03-03T16:40:59;10.10;74.90
70269;DHT22;58514;48.398;-4.274;2023-03-03T16:46:26;10.00;75.40
70269;DHT22;58514;48.398;-4.274;2023-03-03T16:49:00;9.90;75.80
70269;DHT22;58514;48.398;-4.274;2023-03-03T16:51:33;9.80;75.60
70269;DHT22;58514;48.398;-4.274;2023-03-03T16:54:10;9.80;75.80
70269;DHT22;58514;48.398;-4.274;2023-03-03T16:57:23;9.80;76.10
70269;DHT22;58514;48.398;-4.274;2023-03-03T17:07:02;9.80;75.70
70269;DHT22;58514;48.398;-4.274;2023-03-03T17:09:32;9.70;75.40
70269;DHT22;58514;48.398;-4.274;2023-03-03T17:14:50;9.50;76.20
70269;DHT22;58514;48.398;-4.274;2023-03-03T17:17:32;9.40;75.60
70269;DHT22;58514;48.398;-4.274;2023-03-03T17:22:53;9.20;75.50
70269;DHT22;58514;48.398;-4.274;2023-03-03T17:25:23;9.10;75.20
70269;DHT22;58514;48.398;-4.274;2023-03-03T17:30:55;8.90;76.00
70269;DHT22;58514;48.398;-4.274;2023-03-03T17:33:39;8.90;76.40
70269;DHT22;58514;48.398;-4.274;2023-03-03T17:36:26;8.80;76.10
70269;DHT22;58514;48.398;-4.274;2023-03-03T17:46:49;8.60;76.20
70269;DHT22;58514;48.398;-4.274;2023-03-03T17:49:25;8.60;76.20
70269;DHT22;58514;48.398;-4.274;2023-03-03T17:57:08;8.60;76.40
70269;DHT22;58514;48.398;-4.274;2023-03-03T18:00:01;8.60;76.20
70269;DHT22;58514;48.398;-4.274;2023-03-03T18:13:02;8.20;76.20
70269;DHT22;58514;48.398;-4.274;2023-03-03T18:26:08;8.00;76.30
70269;DHT22;58514;48.398;-4.274;2023-03-03T18:28:50;8.00;76.30
70269;DHT22;58514;48.398;-4.274;2023-03-03T18:31:20;8.00;76.60
70269;DHT22;58514;48.398;-4.274;2023-03-03T18:38:53;7.90;76.20
70269;DHT22;58514;48.398;-4.274;2023-03-03T18:41:26;7.90;76.60
70269;DHT22;58514;48.398;-4.274;2023-03-03T18:43:53;7.90;76.50
70269;DHT22;58514;48.398;-4.274;2023-03-03T19:04:34;7.80;76.40
70269;DHT22;58514;48.398;-4.274;2023-03-03T19:09:43;7.80;76.50
70269;DHT22;58514;48.398;-4.274;2023-03-03T19:12:09;7.80;76.80
70269;DHT22;58514;48.398;-4.274;2023-03-03T19:14:45;7.80;76.90
70269;DHT22;58514;48.398;-4.274;2023-03-03T19:22:27;7.90;77.50
70269;DHT22;58514;48.398;-4.274;2023-03-03T19:27:44;7.90;77.60
70269;DHT22;58514;48.398;-4.274;2023-03-03T19:30:20;7.90;77.30
70269;DHT22;58514;48.398;-4.274;2023-03-03T19:35:33;7.90;77.80
70269;DHT22;58514;48.398;-4.274;2023-03-03T19:49:17;8.00;77.60
70269;DHT22;58514;48.398;-4.274;2023-03-03T20:02:05;7.90;78.10
70269;DHT22;58514;48.398;-4.274;2023-03-03T20:15:05;7.80;78.30
70269;DHT22;58514;48.398;-4.274;2023-03-03T20:25:41;7.80;78.60
70269;DHT22;58514;48.398;-4.274;2023-03-03T20:30:58;7.80;78.90
70269;DHT22;58514;48.398;-4.274;2023-03-03T20:33:36;7.70;78.80
70269;DHT22;58514;48.398;-4.274;2023-03-03T20:36:14;7.70;78.70
70269;DHT22;58514;48.398;-4.274;2023-03-03T20:56:09;7.40;79.10
70269;DHT22;58514;48.398;-4.274;2023-03-03T20:58:56;7.40;79.00
70269;DHT22;58514;48.398;-4.274;2023-03-03T21:06:43;7.20;78.80
70269;DHT22;58514;48.398;-4.274;2023-03-03T21:09:19;7.20;79.20
70269;DHT22;58514;48.398;-4.274;2023-03-03T21:11:46;7.10;79.20
70269;DHT22;58514;48.398;-4.274;2023-03-03T21:14:20;7.10;79.40
70269;DHT22;58514;48.398;-4.274;2023-03-03T21:16:45;7.10;79.40
70269;DHT22;58514;48.398;-4.274;2023-03-03T21:19:12;7.00;79.70
70269;DHT22;58514;48.398;-4.274;2023-03-03T21:21:46;7.00;79.30
70269;DHT22;58514;48.398;-4.274;2023-03-03T21:24:13;6.90;79.30
70269;DHT22;58514;48.398;-4.274;2023-03-03T21:29:31;6.90;79.50
70269;DHT22;58514;48.398;-4.274;2023-03-03T21:31:56;6.90;79.60
70269;DHT22;58514;48.398;-4.274;2023-03-03T21:36:47;6.90;80.50
70269;DHT22;58514;48.398;-4.274;2023-03-03T21:42:01;6.90;80.40
70269;DHT22;58514;48.398;-4.274;2023-03-03T21:45:07;6.90;80.10
70269;DHT22;58514;48.398;-4.274;2023-03-03T21:47:19;6.90;80.20
70269;DHT22;58514;48.398;-4.274;2023-03-03T21:49:46;6.90;80.00
70269;DHT22;58514;48.398;-4.274;2023-03-03T21:52:12;6.90;80.30
70269;DHT22;58514;48.398;-4.274;2023-03-03T21:54:39;6.80;80.20
70269;DHT22;58514;48.398;-4.274;2023-03-03T21:57:04;6.80;80.00
70269;DHT22;58514;48.398;-4.274;2023-03-03T21:59:30;6.70;80.10
70269;DHT22;58514;48.398;-4.274;2023-03-03T22:01:56;6.70;80.50
70269;DHT22;58514;48.398;-4.274;2023-03-03T22:04:21;6.70;80.50
70269;DHT22;58514;48.398;-4.274;2023-03-03T22:06:47;6.70;80.50
70269;DHT22;58514;48.398;-4.274;2023-03-03T22:09:12;6.80;80.90
70269;DHT22;58514;48.398;-4.274;2023-03-03T22:11:38;6.70;80.60
70269;DHT22;58514;48.398;-4.274;2023-03-03T22:14:07;6.70;80.10
70269;DHT22;58514;48.398;-4.274;2023-03-03T22:16:33;6.60;80.00
70269;DHT22;58514;48.398;-4.274;2023-03-03T22:18:58;6.60;80.50
70269;DHT22;58514;48.398;-4.274;2023-03-03T22:21:24;6.60;80.60
70269;DHT22;58514;48.398;-4.274;2023-03-03T22:23:49;6.60;80.70